| time (UTC) | temp C | wind direction | speed KPH | gust KPH | rain 1hr cm | rain 24hr cm | rain mn cm | humidity % | barometer mb |
| 20260507231843 | 15 | 355 | 3.2 | 11.3 | 0.00 | 0.13 | 0.05 | 37 | 1007.3 |
| 20260507230314 | 15 | 271 | 3.2 | 11.3 | 0.00 | 0.13 | 0.05 | 37 | 1007.1 |
| 20260507224829 | 16 | 255 | 3.2 | 14.5 | 0.00 | 0.30 | 0.05 | 36 | 1007.1 |
| 20260507223321 | 15 | 280 | 1.6 | 9.7 | 0.00 | 0.30 | 0.05 | 35 | 1006.8 |
| 20260507221832 | 16 | 77 | 3.2 | 11.3 | 0.00 | 0.30 | 0.05 | 34 | 1006.8 |
| 20260507220324 | 16 | 238 | 6.4 | 19.3 | 0.00 | 0.30 | 0.05 | 34 | 1006.7 |
| 20260507214817 | 17 | 245 | 6.4 | 14.5 | 0.00 | 0.38 | 0.05 | 33 | 1006.5 |
| 20260507213332 | 17 | 253 | 4.8 | 9.7 | 0.00 | 0.38 | 0.05 | 34 | 1006.5 |
| 20260507211826 | 17 | 262 | 4.8 | 19.3 | 0.00 | 0.38 | 0.05 | 33 | 1006.5 |
| 20260507210330 | 17 | 271 | 8.0 | 19.3 | 0.00 | 0.38 | 0.05 | 34 | 1006.6 |
| 20260507204823 | 17 | 302 | 6.4 | 16.1 | 0.00 | 0.48 | 0.05 | 35 | 1006.5 |
| 20260507203329 | 17 | 228 | 4.8 | 14.5 | 0.00 | 0.48 | 0.05 | 34 | 1006.5 |
| 20260507201823 | 17 | 262 | 4.8 | 12.9 | 0.00 | 0.48 | 0.05 | 34 | 1006.3 |
| 20260507200328 | 17 | 283 | 6.4 | 14.5 | 0.00 | 0.48 | 0.05 | 35 | 1006.3 |
| 20260507194820 | 17 | 319 | 3.2 | 9.7 | 0.00 | 0.51 | 0.05 | 37 | 1006.4 |
| 20260507193326 | 17 | 314 | 3.2 | 16.1 | 0.00 | 0.51 | 0.05 | 37 | 1006.6 |
| 20260507191821 | 17 | 253 | 4.8 | 19.3 | 0.00 | 0.51 | 0.05 | 36 | 1006.7 |
| 20260507190326 | 17 | 317 | 3.2 | 11.3 | 0.00 | 0.51 | 0.05 | 36 | 1006.8 |
| 20260507184821 | 17 | 285 | 9.7 | 22.5 | 0.00 | 0.61 | 0.05 | 35 | 1006.8 |
| 20260507183329 | 16 | 4 | 6.4 | 16.1 | 0.00 | 0.61 | 0.05 | 34 | 1007.1 |
| 20260507181847 | 16 | 356 | 4.8 | 11.3 | 0.00 | 0.61 | 0.05 | 34 | 1007.1 |
| 20260507180320 | 16 | 248 | 4.8 | 16.1 | 0.00 | 0.61 | 0.05 | 37 | 1007.4 |
| 20260507174824 | 16 | 6 | 6.4 | 24.1 | 0.00 | 0.61 | 0.05 | 34 | 1007.4 |
| 20260507173318 | 16 | 246 | 3.2 | 20.9 | 0.00 | 0.61 | 0.05 | 35 | 1007.2 |
| 20260507171823 | 16 | 332 | 4.8 | 16.1 | 0.00 | 0.61 | 0.05 | 38 | 1007.3 |
| 20260507170329 | 16 | 332 | 6.4 | 16.1 | 0.00 | 0.61 | 0.05 | 37 | 1007.4 |
| 20260507164846 | 16 | 304 | 6.4 | 20.9 | 0.00 | 0.61 | 0.05 | 37 | 1007.8 |
| 20260507163339 | 16 | 288 | 3.2 | 12.9 | 0.00 | 0.61 | 0.05 | 40 | 1008.0 |
| 20260507161828 | 16 | 325 | 4.8 | 17.7 | 0.00 | 0.61 | 0.05 | 42 | 1008.1 |
| 20260507160321 | 15 | 281 | 3.2 | 11.3 | 0.00 | 0.61 | 0.05 | 47 | 1008.1 |
| 20260507154833 | 15 | 327 | 6.4 | 17.7 | 0.00 | 0.61 | 0.05 | 51 | 1008.2 |
| 20260507153325 | 14 | 264 | 6.4 | 19.3 | 0.00 | 0.61 | 0.05 | 48 | 1008.3 |
| 20260507151818 | 14 | 46 | 6.4 | 19.3 | 0.00 | 0.61 | 0.05 | 60 | 1008.4 |
| 20260507150332 | 13 | 259 | 6.4 | 16.1 | 0.00 | 0.61 | 0.05 | 58 | 1008.4 |
| 20260507144845 | 15 | 276 | 4.8 | 11.3 | 0.00 | 0.61 | 0.05 | 60 | 1008.4 |
| 20260507143323 | 13 | 292 | 3.2 | 8.0 | 0.00 | 0.61 | 0.05 | 62 | 1008.6 |
| 20260507141827 | 13 | 231 | 1.6 | 6.4 | 0.00 | 0.61 | 0.05 | 64 | 1008.7 |
| 20260507140321 | 13 | 232 | 6.4 | 9.7 | 0.00 | 0.61 | 0.05 | 64 | 1008.5 |
| 20260507134834 | 13 | 284 | 3.2 | 11.3 | 0.00 | 0.61 | 0.05 | 62 | 1008.4 |
| 20260507133323 | 13 | 254 | 3.2 | 8.0 | 0.00 | 0.61 | 0.05 | 65 | 1008.5 |
| 20260507131818 | 14 | 326 | 1.6 | 6.4 | 0.00 | 0.61 | 0.05 | 65 | 1008.7 |
| 20260507130326 | 13 | 281 | 1.6 | 9.7 | 0.00 | 0.61 | 0.05 | 67 | 1008.9 |
| 20260507124820 | 13 | 32 | 1.6 | 3.2 | 0.00 | 0.61 | 0.05 | 71 | 1008.9 |
| 20260507123324 | 12 | 284 | 1.6 | 6.4 | 0.00 | 0.61 | 0.05 | 75 | 1009.0 |
| 20260507121820 | 11 | 335 | 1.6 | 4.8 | 0.00 | 0.61 | 0.05 | 78 | 1009.2 |
| 20260507120325 | 10 | 63 | 1.6 | 6.4 | 0.00 | 0.61 | 0.05 | 81 | 1009.2 |
| 20260507114816 | 10 | 288 | 1.6 | 4.8 | 0.00 | 0.61 | 0.05 | 83 | 1009.1 |
| 20260507113328 | 10 | 266 | 0.0 | 6.4 | 0.00 | 0.61 | 0.05 | 84 | 1009.1 |
| 20260507111822 | 9 | 267 | 1.6 | 6.4 | 0.00 | 0.61 | 0.05 | 84 | 1008.9 |
| 20260507110334 | 9 | 227 | 1.6 | 3.2 | 0.00 | 0.61 | 0.05 | 84 | 1008.8 |
| 20260507104821 | 9 | 27 | 0.0 | 4.8 | 0.00 | 0.61 | 0.05 | 85 | 1008.7 |
| 20260507103325 | 9 | 106 | 1.6 | 3.2 | 0.00 | 0.61 | 0.05 | 85 | 1008.3 |
| 20260507101829 | 9 | 264 | 0.0 | 4.8 | 0.00 | 0.61 | 0.05 | 85 | 1008.2 |
| 20260507100323 | 9 | 6 | 1.6 | 6.4 | 0.00 | 0.61 | 0.05 | 85 | 1008.3 |
| 20260507094833 | 9 | 7 | 1.6 | 3.2 | 0.00 | 0.61 | 0.05 | 84 | 1008.2 |
| 20260507093347 | 9 | 240 | 0.0 | 3.2 | 0.00 | 0.61 | 0.05 | 85 | 1008.4 |
| 20260507091821 | 9 | 299 | 1.6 | 4.8 | 0.00 | 0.61 | 0.05 | 86 | 1008.4 |
| 20260507090343 | 9 | 279 | 3.2 | 9.7 | 0.00 | 0.61 | 0.05 | 86 | 1008.6 |
| 20260507084835 | 9 | 254 | 0.0 | 4.8 | 0.03 | 0.61 | 0.05 | 88 | 1008.4 |
| 20260507083349 | 9 | 257 | 1.6 | 6.4 | 0.03 | 0.61 | 0.05 | 88 | 1008.4 |
| 20260507081839 | 9 | 220 | 0.0 | 6.4 | 0.03 | 0.61 | 0.05 | 87 | 1008.2 |
| 20260507080356 | 10 | 241 | 0.0 | 4.8 | 0.03 | 0.61 | 0.05 | 85 | 1008.1 |
| 20260507074820 | 10 | 237 | 0.0 | 6.4 | 0.00 | 0.58 | 0.03 | 84 | 1008.2 |
| 20260507073334 | 10 | 274 | 1.6 | 6.4 | 0.00 | 0.58 | 0.03 | 84 | 1008.5 |
| 20260507071824 | 10 | 244 | 3.2 | 11.3 | 0.00 | 0.58 | 0.03 | 84 | 1007.7 |
| 20260507070324 | 11 | 295 | 3.2 | 9.7 | 0.00 | 0.58 | 0.03 | 87 | 1007.5 |
| 20260507064823 | 11 | 269 | 0.0 | 3.2 | 0.00 | 0.58 | 0.03 | 89 | 1007.7 |
| 20260507063338 | 11 | 255 | 1.6 | 4.8 | 0.00 | 0.58 | 0.03 | 88 | 1007.5 |
| 20260507061826 | 11 | 260 | 0.0 | 3.2 | 0.00 | 0.58 | 0.03 | 87 | 1007.2 |
| 20260507060330 | 11 | 282 | 0.0 | 3.2 | 0.00 | 0.58 | 0.03 | 87 | 1007.3 |
| 20260507054827 | 11 | 228 | 0.0 | 3.2 | 0.00 | 0.58 | 0.03 | 87 | 1007.5 |
| 20260507053323 | 11 | 299 | 1.6 | 8.0 | 0.00 | 0.58 | 0.03 | 86 | 1008.0 |
| 20260507051837 | 11 | 285 | 3.2 | 8.0 | 0.00 | 0.58 | 0.03 | 87 | 1007.9 |
| 20260507050352 | 11 | 270 | 1.6 | 4.8 | 0.03 | 0.58 | 0.03 | 88 | 1008.1 |
| 20260507044822 | 11 | 272 | 0.0 | 6.4 | 0.03 | 0.58 | 0.03 | 89 | 1007.7 |
| 20260507043338 | 12 | 279 | 4.8 | 11.3 | 0.08 | 0.58 | 0.03 | 90 | 1007.7 |
| 20260507041828 | 12 | 240 | 1.6 | 6.4 | 0.05 | 0.56 | 0.03 | 92 | 1007.7 |
| 20260507040326 | 13 | 274 | 1.6 | 4.8 | 0.05 | 0.56 | 0.00 | 92 | 1007.8 |
| 20260507034822 | 13 | 276 | 3.2 | 6.4 | 0.05 | 0.56 | 0.56 | 89 | 1007.6 |
| 20260507033323 | 14 | 82 | 1.6 | 8.0 | 0.00 | 0.51 | 0.51 | 91 | 1007.1 |
| 20260507031847 | 14 | 347 | 3.2 | 14.5 | 0.00 | 0.51 | 0.51 | 93 | 1007.0 |
| 20260507030322 | 15 | 328 | 1.6 | 6.4 | 0.00 | 0.51 | 0.51 | 96 | 1006.5 |
| 20260507024839 | 15 | 293 | 1.6 | 4.8 | 0.00 | 0.51 | 0.51 | 96 | 1006.8 |
| 20260507023328 | 15 | 239 | 1.6 | 9.7 | 0.00 | 0.51 | 0.51 | 96 | 1006.6 |
| 20260507021823 | 15 | 236 | 3.2 | 4.8 | 0.00 | 0.51 | 0.51 | 95 | 1006.6 |
| 20260507020327 | 15 | 156 | 0.0 | 6.4 | 0.00 | 0.51 | 0.51 | 95 | 1006.1 |
| 20260507014823 | 15 | 207 | 1.6 | 8.0 | 0.00 | 0.51 | 0.51 | 95 | 1006.3 |
| 20260507013355 | 15 | 254 | 3.2 | 8.0 | 0.00 | 0.51 | 0.51 | 95 | 1006.5 |
| 20260507011848 | 15 | 209 | 4.8 | 8.0 | 0.00 | 0.51 | 0.51 | 95 | 1006.5 |
| 20260507010340 | 15 | 155 | 3.2 | 9.7 | 0.00 | 0.51 | 0.51 | 95 | 1006.4 |
| 20260507004827 | 15 | 160 | 3.2 | 11.3 | 0.00 | 0.51 | 0.51 | 95 | 1006.4 |
| 20260507003325 | 15 | 214 | 4.8 | 11.3 | 0.00 | 0.51 | 0.51 | 95 | 1006.2 |
| 20260507001830 | 15 | 181 | 3.2 | 9.7 | 0.00 | 0.51 | 0.51 | 95 | 1006.1 |
| 20260507000325 | 15 | 174 | 6.4 | 14.5 | 0.03 | 0.51 | 0.51 | 95 | 1006.2 |
| 20260506234832 | 15 | 205 | 4.8 | 12.9 | 0.08 | 0.51 | 0.51 | 95 | 1006.2 |
| 20260506233325 | 15 | 157 | 3.2 | 9.7 | 0.13 | 0.51 | 0.51 | 95 | 1005.9 |